createdAt,value
2018-06-03T00:01:55.815Z,51.33
2018-06-03T00:04:24.017Z,51.07
2018-06-03T00:06:51.503Z,51.27
2018-06-03T00:09:18.947Z,52.23
2018-06-03T00:11:46.403Z,53.20
2018-06-03T00:14:13.879Z,50.67
2018-06-03T00:16:41.440Z,51.53
2018-06-03T00:19:08.887Z,53.03
2018-06-03T00:21:42.962Z,53.20
2018-06-03T00:24:11.179Z,55.30
2018-06-03T00:26:38.647Z,53.53
2018-06-03T00:29:06.085Z,55.57
2018-06-03T00:31:33.527Z,55.30
2018-06-03T00:34:01.015Z,56.30
2018-06-03T00:36:40.347Z,57.43
2018-06-03T00:39:07.804Z,61.35
2018-06-03T00:41:35.259Z,58.40
2018-06-03T00:44:02.701Z,59.03
2018-06-03T00:46:30.150Z,55.43
2018-06-03T00:48:57.605Z,55.17
2018-06-03T00:51:25.047Z,56.80
2018-06-03T00:53:52.491Z,56.53
2018-06-03T00:56:31.818Z,59.40
2018-06-03T00:58:59.258Z,61.67
2018-06-03T01:01:26.697Z,58.73
2018-06-03T01:03:54.139Z,59.60
2018-06-03T01:06:22.487Z,58.13
2018-06-03T01:08:49.907Z,55.80
2018-06-03T01:11:17.374Z,60.23
2018-06-03T01:13:44.856Z,60.10
2018-06-03T01:16:12.403Z,59.20
2018-06-03T01:18:39.960Z,60.77
2018-06-03T01:21:07.505Z,58.37
2018-06-03T01:23:34.933Z,58.33
2018-06-03T01:26:03.142Z,57.73
2018-06-03T01:28:30.599Z,58.83
2018-06-03T01:30:58.054Z,60.93
2018-06-03T01:33:25.522Z,60.37
2018-06-03T01:35:52.964Z,61.80
2018-06-03T01:38:20.443Z,61.77
2018-06-03T01:40:47.885Z,63.53
2018-06-03T01:43:15.338Z,61.93
2018-06-03T01:45:42.814Z,60.47
2018-06-03T01:48:10.363Z,65.00
2018-06-03T01:50:37.809Z,60.53
2018-06-03T01:53:05.279Z,58.83
2018-06-03T01:55:32.734Z,60.60
2018-06-03T01:58:00.191Z,58.97
2018-06-03T02:00:27.646Z,59.47
2018-06-03T02:02:55.139Z,59.93
2018-06-03T02:05:22.567Z,60.27
2018-06-03T02:07:50.128Z,60.50
2018-06-03T02:10:17.567Z,60.00
2018-06-03T02:12:45.012Z,60.43
2018-06-03T02:15:12.461Z,60.27
2018-06-03T02:17:39.907Z,60.07
2018-06-03T02:20:07.395Z,62.00
2018-06-03T02:22:34.840Z,60.47
2018-06-03T02:25:02.401Z,64.73
2018-06-03T02:27:29.834Z,62.43
2018-06-03T02:29:58.150Z,63.13
2018-06-03T02:32:25.642Z,62.20
2018-06-03T02:34:53.151Z,69.93
2018-06-03T02:37:50.135Z,65.63
2018-06-03T02:40:18.344Z,64.67
2018-06-03T02:42:46.471Z,62.83
2018-06-03T02:45:14.569Z,64.20
2018-06-03T02:47:42.639Z,64.27
2018-06-03T02:50:10.743Z,60.67
2018-06-03T02:52:38.835Z,63.07
2018-06-03T02:55:06.924Z,62.73
2018-06-03T02:57:34.994Z,64.67
2018-06-03T03:00:03.134Z,60.83
2018-06-03T03:02:31.230Z,62.47
2018-06-03T03:04:59.314Z,65.53
2018-06-03T03:07:27.435Z,65.27
2018-06-03T03:09:55.536Z,63.33
2018-06-03T03:12:23.395Z,66.60
2018-06-03T03:14:51.484Z,63.00
2018-06-03T03:17:19.612Z,63.07
2018-06-03T03:19:47.756Z,60.67
2018-06-03T03:22:15.851Z,57.93
2018-06-03T03:24:43.927Z,58.57
2018-06-03T03:27:12.023Z,61.43
2018-06-03T03:29:40.137Z,60.23
2018-06-03T03:32:08.241Z,59.17
2018-06-03T03:34:36.364Z,70.90
2018-06-03T03:37:04.468Z,63.17
2018-06-03T03:39:32.544Z,59.07
2018-06-03T03:42:00.628Z,57.43
2018-06-03T03:44:28.703Z,58.27
2018-06-03T03:46:56.825Z,58.83
2018-06-03T03:49:24.931Z,59.17
2018-06-03T03:51:53.004Z,60.90
2018-06-03T03:54:21.074Z,56.40
2018-06-03T03:56:49.159Z,59.40
2018-06-03T03:59:17.231Z,61.57
2018-06-03T04:01:45.327Z,60.83
2018-06-03T04:04:13.424Z,54.60
2018-06-03T04:06:41.538Z,60.07
2018-06-03T04:09:09.627Z,59.37
2018-06-03T04:11:37.636Z,58.63
2018-06-03T04:14:05.751Z,57.90
2018-06-03T04:16:33.839Z,57.93
2018-06-03T04:19:01.981Z,56.23
2018-06-03T04:21:30.071Z,56.77
2018-06-03T04:23:58.142Z,56.07
2018-06-03T04:26:26.249Z,56.93
2018-06-03T04:28:54.363Z,52.87
2018-06-03T04:31:22.434Z,54.00
2018-06-03T04:33:50.395Z,59.77
2018-06-03T04:36:18.477Z,53.40
2018-06-03T04:38:46.565Z,57.95
2018-06-03T04:41:14.718Z,54.00
2018-06-03T04:43:42.772Z,51.47
2018-06-03T04:46:10.861Z,52.83
2018-06-03T04:48:38.958Z,50.83
2018-06-03T04:51:07.044Z,48.67
2018-06-03T04:53:35.102Z,44.37
2018-06-03T04:56:03.256Z,47.30
2018-06-03T04:58:31.346Z,44.40
2018-06-03T05:00:59.454Z,46.37
2018-06-03T05:03:27.539Z,45.47
2018-06-03T05:05:55.616Z,44.63
2018-06-03T05:08:23.688Z,45.23
2018-06-03T05:10:51.787Z,41.20
2018-06-03T05:13:19.874Z,42.20
2018-06-03T05:15:47.988Z,40.33
2018-06-03T05:18:16.062Z,38.73
2018-06-03T05:20:44.139Z,38.13
2018-06-03T05:23:12.261Z,37.00
2018-06-03T05:25:40.462Z,36.07
2018-06-03T05:28:08.635Z,35.60
2018-06-03T05:30:36.771Z,34.17
2018-06-03T05:33:04.903Z,31.77
2018-06-03T05:35:39.737Z,33.00
2018-06-03T05:38:07.884Z,32.00
2018-06-03T05:40:35.934Z,36.13
2018-06-03T05:43:04.143Z,32.30
2018-06-03T05:45:32.214Z,28.07
2018-06-03T05:48:00.322Z,30.50
2018-06-03T05:50:28.396Z,29.67
2018-06-03T05:52:56.291Z,28.93
2018-06-03T05:55:24.381Z,30.07
2018-06-03T05:57:52.443Z,29.83
2018-06-03T06:00:20.525Z,30.10
2018-06-03T06:02:48.615Z,30.00
2018-06-03T06:05:16.687Z,30.37
2018-06-03T06:07:44.771Z,30.63
2018-06-03T06:10:12.873Z,31.23
2018-06-03T06:12:40.979Z,31.37
2018-06-03T06:15:09.043Z,29.53
2018-06-03T06:17:37.135Z,29.23
2018-06-03T06:20:06.033Z,28.60
2018-06-03T06:22:34.187Z,29.77
2018-06-03T06:25:02.329Z,30.63
2018-06-03T06:27:30.451Z,29.40
2018-06-03T06:29:58.544Z,28.67
2018-06-03T06:32:26.659Z,29.30
2018-06-03T06:34:54.800Z,29.00
2018-06-03T06:37:22.895Z,28.70
2018-06-03T06:39:50.994Z,27.70
2018-06-03T06:42:19.124Z,27.80
2018-06-03T06:44:47.252Z,28.90
2018-06-03T06:47:15.331Z,24.93
2018-06-03T06:49:43.395Z,26.60
2018-06-03T06:52:11.542Z,24.77
2018-06-03T06:54:39.667Z,23.60
2018-06-03T06:57:07.751Z,22.60
2018-06-03T06:59:35.851Z,22.73
2018-06-03T07:02:04.041Z,22.27
2018-06-03T07:04:32.129Z,24.13
2018-06-03T07:07:00.214Z,22.10
2018-06-03T07:09:28.295Z,23.73
2018-06-03T07:11:56.411Z,23.33
2018-06-03T07:14:24.566Z,23.47
2018-06-03T07:16:52.606Z,23.97
2018-06-03T07:19:20.514Z,24.57
2018-06-03T07:21:48.670Z,26.43
2018-06-03T07:24:16.814Z,28.07
2018-06-03T07:26:45.043Z,29.43
2018-06-03T07:29:13.164Z,28.80
2018-06-03T07:31:41.235Z,31.17
2018-06-03T07:34:09.319Z,31.17
2018-06-03T07:36:37.398Z,31.45
2018-06-03T07:39:06.711Z,29.72
2018-06-03T07:41:34.823Z,31.15
2018-06-03T07:44:03.471Z,30.60
2018-06-03T07:46:31.575Z,34.55
2018-06-03T07:48:59.687Z,34.60
2018-06-03T07:51:27.822Z,35.98
2018-06-03T07:53:55.894Z,37.67
2018-06-03T07:56:23.958Z,36.75
2018-06-03T07:58:52.083Z,37.13
2018-06-03T08:01:20.186Z,35.58
2018-06-03T08:03:48.256Z,37.08
2018-06-03T08:06:16.355Z,37.60
2018-06-03T08:08:44.442Z,38.08
2018-06-03T08:11:12.542Z,38.40
2018-06-03T08:13:40.691Z,39.42
2018-06-03T08:16:08.940Z,39.30
2018-06-03T08:18:37.080Z,37.67
2018-06-03T08:21:05.186Z,33.92
2018-06-03T08:23:33.446Z,35.60
2018-06-03T08:26:01.520Z,34.60
2018-06-03T08:28:29.622Z,36.95
2018-06-03T08:30:57.731Z,39.23
2018-06-03T08:33:25.834Z,35.33
2018-06-03T08:35:53.956Z,42.65
2018-06-03T08:38:22.048Z,36.88
2018-06-03T08:40:50.126Z,37.73
2018-06-03T08:43:18.327Z,36.13
2018-06-03T08:45:46.451Z,37.50
2018-06-03T08:48:14.520Z,36.90
2018-06-03T08:50:42.601Z,37.28
2018-06-03T08:53:10.753Z,35.45
2018-06-03T08:55:38.880Z,36.00
2018-06-03T08:58:07.060Z,34.90
2018-06-03T09:00:35.117Z,33.05
2018-06-03T09:03:03.206Z,28.83
2018-06-03T09:05:31.298Z,26.12
2018-06-03T09:07:59.367Z,28.23
2018-06-03T09:10:27.467Z,26.85
2018-06-03T09:12:55.646Z,25.55
2018-06-03T09:15:23.765Z,18.87
2018-06-03T09:17:52.045Z,18.17
2018-06-03T09:20:20.196Z,25.23
2018-06-03T09:22:48.301Z,25.92
2018-06-03T09:25:16.399Z,22.52
2018-06-03T09:27:44.545Z,29.92
2018-06-03T09:30:12.637Z,28.98
2018-06-03T09:32:40.801Z,21.93
2018-06-03T09:35:08.875Z,22.10
2018-06-03T09:37:37.034Z,26.40
2018-06-03T09:40:05.239Z,26.27
2018-06-03T09:42:33.332Z,25.43
2018-06-03T09:45:01.451Z,22.48
2018-06-03T09:47:29.553Z,26.42
2018-06-03T09:49:57.846Z,22.87
2018-06-03T09:52:25.918Z,19.80
2018-06-03T09:54:54.043Z,18.80
2018-06-03T09:57:22.123Z,21.45
2018-06-03T09:59:50.210Z,23.73
2018-06-03T10:02:18.767Z,24.35
2018-06-03T10:04:46.857Z,25.30
2018-06-03T10:07:14.925Z,24.52
2018-06-03T10:09:43.016Z,24.25
2018-06-03T10:12:11.156Z,23.70
2018-06-03T10:14:39.280Z,21.40
2018-06-03T10:17:07.383Z,19.85
2018-06-03T10:19:35.463Z,22.02
2018-06-03T10:22:03.565Z,17.67
2018-06-03T10:24:31.644Z,18.70
2018-06-03T10:27:00.081Z,20.15
2018-06-03T10:29:28.185Z,20.05
2018-06-03T10:31:56.329Z,20.12
2018-06-03T10:34:24.403Z,17.37
2018-06-03T10:36:52.486Z,16.02
2018-06-03T10:39:20.582Z,17.37
2018-06-03T10:41:48.723Z,14.28
2018-06-03T10:44:16.827Z,16.27
2018-06-03T10:46:44.879Z,14.15
2018-06-03T10:49:13.004Z,14.28
2018-06-03T10:51:41.103Z,14.65
2018-06-03T10:54:09.234Z,14.68
2018-06-03T10:56:37.327Z,13.35
2018-06-03T10:59:05.487Z,14.95
2018-06-03T11:01:33.606Z,13.58
2018-06-03T11:04:01.703Z,13.85
2018-06-03T11:06:29.956Z,14.03
2018-06-03T11:08:58.047Z,14.20
2018-06-03T11:11:26.267Z,13.90
2018-06-03T11:13:54.350Z,12.23
2018-06-03T11:16:22.574Z,11.70
2018-06-03T11:18:50.870Z,14.83
2018-06-03T11:21:19.066Z,16.23
2018-06-03T11:23:47.155Z,16.55
2018-06-03T11:26:15.316Z,13.68
2018-06-03T11:28:43.375Z,14.80
2018-06-03T11:31:11.517Z,12.78
2018-06-03T11:33:39.597Z,12.88
2018-06-03T11:36:08.443Z,12.37
2018-06-03T11:38:36.503Z,14.18
2018-06-03T11:41:04.583Z,13.13
2018-06-03T11:43:32.715Z,12.75
2018-06-03T11:46:00.783Z,14.30
2018-06-03T11:48:28.855Z,13.78
2018-06-03T11:50:56.936Z,13.20
2018-06-03T11:53:25.039Z,13.85
2018-06-03T11:55:52.902Z,13.58
2018-06-03T11:58:36.147Z,13.50
2018-06-03T12:01:04.309Z,11.90
2018-06-03T12:03:32.375Z,14.07
2018-06-03T12:06:00.495Z,12.33
2018-06-03T12:08:28.921Z,11.48
2018-06-03T12:10:57.033Z,10.53
2018-06-03T12:13:25.129Z,9.65
2018-06-03T12:15:53.244Z,10.00
2018-06-03T12:18:21.351Z,9.78
2018-06-03T12:20:49.506Z,9.83
2018-06-03T12:23:17.701Z,10.30
2018-06-03T12:25:45.803Z,9.78
2018-06-03T12:28:13.907Z,10.65
2018-06-03T12:30:42.205Z,9.58
2018-06-03T12:33:10.368Z,9.93
2018-06-03T12:35:38.445Z,9.20
2018-06-03T12:38:06.555Z,9.88
2018-06-03T12:40:34.631Z,9.80
2018-06-03T12:43:02.787Z,9.48
2018-06-03T12:45:30.844Z,9.15
2018-06-03T12:47:58.972Z,8.48
2018-06-03T12:50:27.119Z,7.72
2018-06-03T12:52:55.216Z,7.20
2018-06-03T12:55:23.275Z,7.03
2018-06-03T12:57:51.336Z,8.68
2018-06-03T13:00:19.518Z,9.48
2018-06-03T13:02:47.607Z,8.43
2018-06-03T13:05:15.805Z,9.08
2018-06-03T13:07:43.710Z,7.75
2018-06-03T13:10:14.401Z,7.83
2018-06-03T13:12:42.590Z,8.53
2018-06-03T13:15:10.693Z,8.08
2018-06-03T13:17:39.172Z,7.22
2018-06-03T13:20:07.555Z,7.53
2018-06-03T13:22:35.637Z,5.83
2018-06-03T13:25:03.736Z,6.80
2018-06-03T13:27:31.843Z,6.60
2018-06-03T13:29:59.942Z,6.53
2018-06-03T13:32:28.123Z,5.83
2018-06-03T13:34:56.192Z,5.33
2018-06-03T13:37:24.293Z,4.95
2018-06-03T13:39:52.382Z,5.28
2018-06-03T13:42:20.488Z,5.35
2018-06-03T13:44:48.595Z,5.58
2018-06-03T13:47:16.724Z,5.55
2018-06-03T13:49:44.825Z,6.05
2018-06-03T13:52:12.912Z,7.15
2018-06-03T13:54:40.990Z,7.05
2018-06-03T13:57:09.076Z,6.15
2018-06-03T13:59:37.161Z,6.35
2018-06-03T14:02:05.282Z,5.67
2018-06-03T14:04:33.459Z,6.85
2018-06-03T14:07:01.549Z,7.80
2018-06-03T14:09:40.236Z,7.80
2018-06-03T14:12:08.875Z,8.13
2018-06-03T14:14:37.010Z,8.40
2018-06-03T14:17:05.148Z,7.42
2018-06-03T14:19:33.258Z,7.72
2018-06-03T14:22:01.353Z,7.08
2018-06-03T14:24:29.927Z,8.50
2018-06-03T14:26:58.005Z,6.87
2018-06-03T14:29:49.825Z,7.70
2018-06-03T14:32:28.014Z,7.92
2018-06-03T14:49:21.195Z,7.33
2018-06-03T14:51:49.278Z,6.72
2018-06-03T14:54:17.405Z,7.33
2018-06-03T14:56:45.498Z,7.25
2018-06-03T14:59:13.507Z,7.70
2018-06-03T15:01:41.626Z,7.12
2018-06-03T15:04:09.683Z,6.87
2018-06-03T15:06:37.752Z,6.20
2018-06-03T15:09:07.511Z,6.60
2018-06-03T15:11:37.012Z,6.47
2018-06-03T15:14:05.008Z,6.17
2018-06-03T15:16:33.404Z,7.28
2018-06-03T15:19:01.527Z,6.47
2018-06-03T15:21:29.410Z,6.95
2018-06-03T15:23:57.476Z,7.03
2018-06-03T15:26:25.605Z,7.60
2018-06-03T15:28:53.722Z,6.67
2018-06-03T15:31:21.799Z,6.33
2018-06-03T15:33:49.993Z,6.70
2018-06-03T15:36:18.040Z,6.10
2018-06-03T15:38:46.210Z,6.12
2018-06-03T15:41:29.012Z,6.17
2018-06-03T15:43:57.175Z,5.30
2018-06-03T15:46:25.240Z,5.95
2018-06-03T15:48:53.322Z,6.53
2018-06-03T15:51:22.008Z,7.33
2018-06-03T15:53:50.101Z,6.92
2018-06-03T15:56:18.186Z,7.78
2018-06-03T15:58:46.303Z,8.33
2018-06-03T16:01:14.368Z,7.30
2018-06-03T16:03:42.461Z,6.47
2018-06-03T16:06:10.606Z,7.65
2018-06-03T16:08:38.711Z,6.75
2018-06-03T16:11:06.865Z,6.83
2018-06-03T16:13:34.974Z,6.58
2018-06-03T16:16:03.011Z,8.00
2018-06-03T16:18:31.159Z,6.92
2018-06-03T16:20:59.325Z,7.03
2018-06-03T16:23:27.428Z,6.75
2018-06-03T16:25:55.498Z,7.17
2018-06-03T16:28:23.737Z,9.60
2018-06-03T16:30:51.801Z,10.55
2018-06-03T16:33:20.800Z,10.48
2018-06-03T16:35:49.709Z,10.13
2018-06-03T16:38:17.761Z,9.50
2018-06-03T16:40:45.923Z,10.45
2018-06-03T16:43:14.112Z,12.13
2018-06-03T16:45:42.167Z,14.53
2018-06-03T16:48:10.272Z,17.30
2018-06-03T16:50:38.378Z,17.77
2018-06-03T16:53:06.460Z,17.70
2018-06-03T16:55:34.598Z,16.35
2018-06-03T16:58:02.731Z,18.92
2018-06-03T17:00:30.879Z,18.90
2018-06-03T17:02:58.963Z,16.85
2018-06-03T17:05:27.047Z,16.02
2018-06-03T17:07:55.126Z,16.23
2018-06-03T17:10:23.221Z,17.05
2018-06-03T17:12:51.299Z,16.67
2018-06-03T17:15:19.375Z,16.20
2018-06-03T17:17:47.455Z,16.23
2018-06-03T17:20:15.589Z,14.55
2018-06-03T17:22:43.664Z,14.23
2018-06-03T17:25:11.752Z,14.73
2018-06-03T17:27:39.896Z,15.18
2018-06-03T17:30:08.070Z,15.28
2018-06-03T17:32:36.161Z,17.37
2018-06-03T17:35:04.271Z,15.25
2018-06-03T17:37:32.492Z,16.62
2018-06-03T17:40:00.558Z,16.37
2018-06-03T17:42:28.724Z,17.35
2018-06-03T17:44:56.803Z,18.05
2018-06-03T17:47:24.902Z,17.32
2018-06-03T17:49:53.396Z,17.07
2018-06-03T17:52:22.258Z,18.00
2018-06-03T17:54:50.403Z,18.48
2018-06-03T17:57:18.463Z,18.35
2018-06-03T17:59:46.470Z,18.60
2018-06-03T18:02:14.565Z,18.62
2018-06-03T18:04:42.709Z,19.42
2018-06-03T18:07:10.787Z,19.12
2018-06-03T18:09:38.867Z,18.30
2018-06-03T18:12:07.132Z,19.12
2018-06-03T18:14:35.200Z,19.25
2018-06-03T18:17:03.381Z,17.20
2018-06-03T18:19:31.551Z,18.82
2018-06-03T18:21:59.635Z,19.48
2018-06-03T18:24:27.700Z,17.48
2018-06-03T18:26:56.423Z,17.05
2018-06-03T18:29:24.550Z,19.07
2018-06-03T18:31:52.633Z,18.67
2018-06-03T18:34:20.715Z,19.92
2018-06-03T18:39:23.768Z,18.85
2018-06-03T18:41:51.851Z,20.60
2018-06-03T18:44:19.959Z,21.52
2018-06-03T18:46:48.037Z,21.15
2018-06-03T18:49:16.136Z,20.62
2018-06-03T18:51:44.487Z,22.37
2018-06-03T18:54:12.744Z,21.20
2018-06-03T18:56:40.870Z,22.48
2018-06-03T18:59:09.107Z,21.97
2018-06-03T19:01:37.469Z,22.80
2018-06-03T19:04:05.905Z,22.90
2018-06-03T19:06:33.969Z,22.75
2018-06-03T19:09:02.063Z,24.37
2018-06-03T19:11:30.174Z,23.90
2018-06-03T19:13:58.368Z,24.15
2018-06-03T19:16:26.334Z,24.12
2018-06-03T19:18:54.491Z,25.35
2018-06-03T19:21:22.631Z,23.83
2018-06-03T19:23:50.727Z,24.87
2018-06-03T19:26:18.830Z,24.30
2018-06-03T19:28:46.943Z,26.97
2018-06-03T19:31:15.089Z,27.02
2018-06-03T19:33:43.204Z,26.95
2018-06-03T19:36:11.330Z,25.25
2018-06-03T19:38:39.465Z,25.82
2018-06-03T19:41:07.607Z,26.60
2018-06-03T19:43:36.024Z,27.90
2018-06-03T19:46:04.194Z,30.72
2018-06-03T19:48:32.284Z,32.78
2018-06-03T19:51:00.487Z,32.73
2018-06-03T19:53:28.678Z,31.62
2018-06-03T19:55:56.889Z,29.32
2018-06-03T19:58:24.995Z,29.72
2018-06-03T20:00:53.193Z,30.17
2018-06-03T20:03:21.267Z,29.30
2018-06-03T20:05:50.406Z,31.02
2018-06-03T20:08:18.508Z,30.95
2018-06-03T20:10:46.652Z,29.55
2018-06-03T20:13:14.742Z,30.27
2018-06-03T20:15:42.839Z,29.85
2018-06-03T20:18:10.931Z,30.43
2018-06-03T20:20:39.046Z,30.08
2018-06-03T20:23:07.139Z,29.37
2018-06-03T20:25:35.250Z,29.42
2018-06-03T20:28:03.461Z,27.45
2018-06-03T20:30:31.659Z,28.20
2018-06-03T20:32:59.931Z,31.17
2018-06-03T20:35:28.139Z,29.75
2018-06-03T20:37:56.211Z,28.40
2018-06-03T20:40:24.324Z,27.75
2018-06-03T20:42:52.383Z,27.52
2018-06-03T20:45:20.467Z,27.27
2018-06-03T20:47:48.551Z,28.40
2018-06-03T20:50:16.634Z,26.25
2018-06-03T20:52:44.716Z,26.97
2018-06-03T20:55:12.822Z,26.67
2018-06-03T20:57:40.886Z,26.07
2018-06-03T21:00:08.967Z,28.27
2018-06-03T21:02:37.043Z,28.12
2018-06-03T21:05:05.178Z,28.10
2018-06-03T21:07:33.247Z,28.27
2018-06-03T21:10:01.376Z,28.50
2018-06-03T21:12:29.478Z,26.85
2018-06-03T21:14:57.556Z,27.58
2018-06-03T21:17:25.712Z,30.00
2018-06-03T21:19:53.784Z,28.53
2018-06-03T21:22:21.902Z,30.33
2018-06-03T21:24:49.974Z,30.10
2018-06-03T21:27:18.055Z,28.63
2018-06-03T21:29:46.143Z,28.80
2018-06-03T21:32:14.239Z,28.87
2018-06-03T21:34:42.321Z,28.33
2018-06-03T21:37:10.377Z,29.13
2018-06-03T21:39:38.493Z,30.43
2018-06-03T21:42:06.607Z,29.17
2018-06-03T21:44:34.691Z,29.80
2018-06-03T21:47:02.781Z,30.47
2018-06-03T21:49:32.241Z,31.03
2018-06-03T21:52:00.322Z,30.03
2018-06-03T21:54:29.073Z,30.37
2018-06-03T21:56:57.145Z,31.27
2018-06-03T21:59:25.264Z,32.20
2018-06-03T22:01:53.379Z,32.70
2018-06-03T22:04:21.531Z,32.13
2018-06-03T22:06:49.654Z,34.95
2018-06-03T22:09:17.768Z,33.37
2018-06-03T22:11:45.849Z,31.77
2018-06-03T22:14:13.920Z,30.73
2018-06-03T22:16:41.979Z,31.00
2018-06-03T22:19:10.094Z,29.77
2018-06-03T22:21:38.182Z,30.10
2018-06-03T22:24:06.276Z,30.07
2018-06-03T22:26:34.485Z,30.57
2018-06-03T22:29:02.563Z,28.90
2018-06-03T22:31:30.747Z,30.47
2018-06-03T22:33:58.864Z,29.50
2018-06-03T22:36:27.228Z,28.33
2018-06-03T22:38:55.293Z,27.40
2018-06-03T22:41:23.524Z,28.00
2018-06-03T22:43:51.600Z,27.63
2018-06-03T22:46:19.692Z,27.23
2018-06-03T22:48:47.794Z,27.17
2018-06-03T22:51:15.869Z,26.77
2018-06-03T22:53:43.989Z,27.55
2018-06-03T22:56:12.071Z,27.73
2018-06-03T22:58:40.343Z,29.73
2018-06-03T23:01:08.516Z,26.03
2018-06-03T23:03:36.596Z,26.97
2018-06-03T23:06:04.706Z,25.53
2018-06-03T23:08:32.779Z,26.47
2018-06-03T23:11:00.902Z,26.70
2018-06-03T23:13:28.982Z,26.77
2018-06-03T23:15:57.088Z,27.70
2018-06-03T23:18:25.163Z,27.73
2018-06-03T23:20:53.290Z,26.67
2018-06-03T23:23:21.391Z,26.57
2018-06-03T23:25:49.485Z,28.47
2018-06-03T23:28:17.555Z,26.87
2018-06-03T23:30:45.633Z,28.67
2018-06-03T23:33:13.722Z,27.20
2018-06-03T23:35:41.840Z,28.17
2018-06-03T23:38:09.934Z,30.48
2018-06-03T23:40:38.019Z,27.52
2018-06-03T23:43:06.131Z,27.80
2018-06-03T23:45:34.263Z,25.63
2018-06-03T23:48:02.367Z,27.40
2018-06-03T23:50:30.489Z,28.57
2018-06-03T23:52:58.638Z,28.10
2018-06-03T23:55:26.695Z,27.63
2018-06-03T23:57:54.846Z,31.80
